sensor_id;sensor_type;location;lat;lon;timestamp;temperature;humidity
55213;DHT22;41083;52.932;6.674;2022-08-04T00:00:11;19.70;99.90
55213;DHT22;41083;52.932;6.674;2022-08-04T00:03:09;19.60;99.90
55213;DHT22;41083;52.932;6.674;2022-08-04T00:08:14;19.60;99.90
55213;DHT22;41083;52.932;6.674;2022-08-04T00:10:48;19.60;99.90
55213;DHT22;41083;52.932;6.674;2022-08-04T00:13:15;19.60;99.90
55213;DHT22;41083;52.932;6.674;2022-08-04T00:15:42;19.60;99.90
55213;DHT22;41083;52.932;6.674;2022-08-04T00:18:09;19.60;99.90
55213;DHT22;41083;52.932;6.674;2022-08-04T00:20:40;19.50;99.90
55213;DHT22;41083;52.932;6.674;2022-08-04T00:23:08;19.50;99.90
55213;DHT22;41083;52.932;6.674;2022-08-04T00:25:38;19.60;99.90
55213;DHT22;41083;52.932;6.674;2022-08-04T00:28:05;19.50;99.90
55213;DHT22;41083;52.932;6.674;2022-08-04T00:30:31;19.50;99.90
55213;DHT22;41083;52.932;6.674;2022-08-04T00:32:59;19.50;99.90
55213;DHT22;41083;52.932;6.674;2022-08-04T00:35:26;19.50;99.90
55213;DHT22;41083;52.932;6.674;2022-08-04T00:37:52;19.50;99.90
55213;DHT22;41083;52.932;6.674;2022-08-04T00:40:42;19.50;99.90
55213;DHT22;41083;52.932;6.674;2022-08-04T00:43:22;19.50;99.90
55213;DHT22;41083;52.932;6.674;2022-08-04T00:46:08;19.50;99.90
55213;DHT22;41083;52.932;6.674;2022-08-04T00:51:42;19.50;99.90
55213;DHT22;41083;52.932;6.674;2022-08-04T01:04:56;19.40;99.90
55213;DHT22;41083;52.932;6.674;2022-08-04T01:16:26;19.30;99.90
55213;DHT22;41083;52.932;6.674;2022-08-04T01:18:59;19.30;99.90
55213;DHT22;41083;52.932;6.674;2022-08-04T01:29:42;19.30;99.90
55213;DHT22;41083;52.932;6.674;2022-08-04T01:32:27;19.30;99.90
55213;DHT22;41083;52.932;6.674;2022-08-04T01:36:03;19.30;99.90
55213;DHT22;41083;52.932;6.674;2022-08-04T01:38:16;19.30;99.90
55213;DHT22;41083;52.932;6.674;2022-08-04T01:40:44;19.30;99.90
55213;DHT22;41083;52.932;6.674;2022-08-04T01:43:12;19.20;99.90
55213;DHT22;41083;52.932;6.674;2022-08-04T01:45:39;19.20;99.90
55213;DHT22;41083;52.932;6.674;2022-08-04T01:48:06;19.20;99.90
55213;DHT22;41083;52.932;6.674;2022-08-04T01:50:34;19.20;99.90
55213;DHT22;41083;52.932;6.674;2022-08-04T01:53:01;19.20;99.90
55213;DHT22;41083;52.932;6.674;2022-08-04T01:55:28;19.20;99.90
55213;DHT22;41083;52.932;6.674;2022-08-04T01:57:57;19.20;99.90
55213;DHT22;41083;52.932;6.674;2022-08-04T02:00:25;19.20;99.90
55213;DHT22;41083;52.932;6.674;2022-08-04T02:02:55;19.10;99.90
55213;DHT22;41083;52.932;6.674;2022-08-04T02:05:23;19.10;99.90
55213;DHT22;41083;52.932;6.674;2022-08-04T02:10:58;19.00;99.90
55213;DHT22;41083;52.932;6.674;2022-08-04T02:16:46;19.00;99.90
55213;DHT22;41083;52.932;6.674;2022-08-04T02:19:17;18.90;99.90
55213;DHT22;41083;52.932;6.674;2022-08-04T02:21:56;18.90;99.90
55213;DHT22;41083;52.932;6.674;2022-08-04T02:24:25;18.80;99.90
55213;DHT22;41083;52.932;6.674;2022-08-04T02:26:52;18.80;99.90
55213;DHT22;41083;52.932;6.674;2022-08-04T02:29:34;18.80;99.90
55213;DHT22;41083;52.932;6.674;2022-08-04T02:32:06;18.80;99.90
55213;DHT22;41083;52.932;6.674;2022-08-04T02:34:52;18.70;99.90
55213;DHT22;41083;52.932;6.674;2022-08-04T02:37:20;18.70;99.90
55213;DHT22;41083;52.932;6.674;2022-08-04T02:39:47;18.70;99.90
55213;DHT22;41083;52.932;6.674;2022-08-04T02:42:14;18.60;99.90
55213;DHT22;41083;52.932;6.674;2022-08-04T02:44:42;18.70;99.90
55213;DHT22;41083;52.932;6.674;2022-08-04T02:47:10;18.60;99.90
55213;DHT22;41083;52.932;6.674;2022-08-04T02:49:36;18.60;99.90
55213;DHT22;41083;52.932;6.674;2022-08-04T02:52:02;18.60;99.90
55213;DHT22;41083;52.932;6.674;2022-08-04T02:54:34;18.60;99.90
55213;DHT22;41083;52.932;6.674;2022-08-04T02:57:01;18.60;99.90
55213;DHT22;41083;52.932;6.674;2022-08-04T02:59:28;18.60;99.90
55213;DHT22;41083;52.932;6.674;2022-08-04T03:02:02;18.60;99.90
55213;DHT22;41083;52.932;6.674;2022-08-04T03:10:42;18.60;99.90
55213;DHT22;41083;52.932;6.674;2022-08-04T03:28:57;18.50;99.90
55213;DHT22;41083;52.932;6.674;2022-08-04T03:34:55;18.40;99.90
55213;DHT22;41083;52.932;6.674;2022-08-04T03:37:57;18.40;99.90
55213;DHT22;41083;52.932;6.674;2022-08-04T03:48:38;18.40;99.90
55213;DHT22;41083;52.932;6.674;2022-08-04T04:00:40;18.30;99.90
55213;DHT22;41083;52.932;6.674;2022-08-04T04:25:08;18.20;99.90
55213;DHT22;41083;52.932;6.674;2022-08-04T04:30:26;18.20;99.90
55213;DHT22;41083;52.932;6.674;2022-08-04T04:36:07;18.20;99.90
55213;DHT22;41083;52.932;6.674;2022-08-04T04:44:12;18.30;99.90
55213;DHT22;41083;52.932;6.674;2022-08-04T04:47:13;18.20;99.90
55213;DHT22;41083;52.932;6.674;2022-08-04T04:49:51;18.30;99.90
55213;DHT22;41083;52.932;6.674;2022-08-04T04:53:02;18.30;99.90
55213;DHT22;41083;52.932;6.674;2022-08-04T04:55:50;18.30;99.90
55213;DHT22;41083;52.932;6.674;2022-08-04T04:58:19;18.30;99.90
55213;DHT22;41083;52.932;6.674;2022-08-04T05:00:48;18.30;99.90
55213;DHT22;41083;52.932;6.674;2022-08-04T05:06:06;18.40;99.90
55213;DHT22;41083;52.932;6.674;2022-08-04T05:09:02;18.30;99.90
55213;DHT22;41083;52.932;6.674;2022-08-04T05:14:31;18.40;99.90
55213;DHT22;41083;52.932;6.674;2022-08-04T05:17:02;18.40;99.90
55213;DHT22;41083;52.932;6.674;2022-08-04T05:19:56;18.40;99.90
55213;DHT22;41083;52.932;6.674;2022-08-04T05:22:28;18.40;99.90
55213;DHT22;41083;52.932;6.674;2022-08-04T05:28:03;18.50;99.90
55213;DHT22;41083;52.932;6.674;2022-08-04T05:30:34;18.60;99.90
55213;DHT22;41083;52.932;6.674;2022-08-04T05:33:04;18.70;99.90
55213;DHT22;41083;52.932;6.674;2022-08-04T05:35:39;18.70;99.90
55213;DHT22;41083;52.932;6.674;2022-08-04T05:38:07;18.70;99.90
55213;DHT22;41083;52.932;6.674;2022-08-04T05:40:37;18.70;99.90
55213;DHT22;41083;52.932;6.674;2022-08-04T05:43:04;18.80;99.90
55213;DHT22;41083;52.932;6.674;2022-08-04T05:45:33;18.80;99.90
55213;DHT22;41083;52.932;6.674;2022-08-04T05:48:01;18.80;99.90
55213;DHT22;41083;52.932;6.674;2022-08-04T05:50:28;18.90;99.90
55213;DHT22;41083;52.932;6.674;2022-08-04T05:52:55;18.90;99.90
55213;DHT22;41083;52.932;6.674;2022-08-04T05:55:22;19.00;99.90
55213;DHT22;41083;52.932;6.674;2022-08-04T05:57:48;19.10;99.90
55213;DHT22;41083;52.932;6.674;2022-08-04T06:00:15;19.10;99.90
55213;DHT22;41083;52.932;6.674;2022-08-04T06:02:44;19.10;99.90
55213;DHT22;41083;52.932;6.674;2022-08-04T06:05:13;19.10;99.90
55213;DHT22;41083;52.932;6.674;2022-08-04T06:07:39;19.20;99.90
55213;DHT22;41083;52.932;6.674;2022-08-04T06:10:05;19.30;99.90
55213;DHT22;41083;52.932;6.674;2022-08-04T06:12:37;19.30;99.90
55213;DHT22;41083;52.932;6.674;2022-08-04T06:15:06;19.30;99.90
55213;DHT22;41083;52.932;6.674;2022-08-04T06:17:38;19.40;99.90
55213;DHT22;41083;52.932;6.674;2022-08-04T06:20:07;19.40;99.90
55213;DHT22;41083;52.932;6.674;2022-08-04T06:22:34;19.50;99.90
55213;DHT22;41083;52.932;6.674;2022-08-04T06:25:04;19.50;99.90
55213;DHT22;41083;52.932;6.674;2022-08-04T06:27:30;19.70;99.90
55213;DHT22;41083;52.932;6.674;2022-08-04T06:29:58;19.70;99.90
55213;DHT22;41083;52.932;6.674;2022-08-04T06:32:27;19.80;99.90
55213;DHT22;41083;52.932;6.674;2022-08-04T06:35:03;19.90;99.90
55213;DHT22;41083;52.932;6.674;2022-08-04T06:37:31;20.10;99.90
55213;DHT22;41083;52.932;6.674;2022-08-04T06:39:59;20.70;99.90
55213;DHT22;41083;52.932;6.674;2022-08-04T06:42:27;21.70;99.90
55213;DHT22;41083;52.932;6.674;2022-08-04T06:44:55;22.70;99.90
55213;DHT22;41083;52.932;6.674;2022-08-04T06:47:22;23.50;99.90
55213;DHT22;41083;52.932;6.674;2022-08-04T06:49:51;23.70;99.90
55213;DHT22;41083;52.932;6.674;2022-08-04T06:52:18;23.60;99.90
55213;DHT22;41083;52.932;6.674;2022-08-04T06:54:51;23.50;99.90
55213;DHT22;41083;52.932;6.674;2022-08-04T06:57:19;23.30;99.90
55213;DHT22;41083;52.932;6.674;2022-08-04T06:59:51;23.10;99.90
55213;DHT22;41083;52.932;6.674;2022-08-04T07:02:24;23.00;99.90
55213;DHT22;41083;52.932;6.674;2022-08-04T07:04:50;23.00;99.90
55213;DHT22;41083;52.932;6.674;2022-08-04T07:07:16;22.80;99.90
55213;DHT22;41083;52.932;6.674;2022-08-04T07:09:42;22.80;99.90
55213;DHT22;41083;52.932;6.674;2022-08-04T07:12:09;22.80;99.90
55213;DHT22;41083;52.932;6.674;2022-08-04T07:14:35;22.90;99.90
55213;DHT22;41083;52.932;6.674;2022-08-04T07:17:03;22.80;99.90
55213;DHT22;41083;52.932;6.674;2022-08-04T07:19:34;22.90;99.90
55213;DHT22;41083;52.932;6.674;2022-08-04T07:22:00;22.90;99.90
55213;DHT22;41083;52.932;6.674;2022-08-04T07:24:30;22.90;99.90
55213;DHT22;41083;52.932;6.674;2022-08-04T07:26:56;22.90;99.90
55213;DHT22;41083;52.932;6.674;2022-08-04T07:29:22;22.80;99.90
55213;DHT22;41083;52.932;6.674;2022-08-04T07:31:48;22.80;99.90
55213;DHT22;41083;52.932;6.674;2022-08-04T07:34:14;22.70;99.90
55213;DHT22;41083;52.932;6.674;2022-08-04T07:36:40;22.80;99.90
55213;DHT22;41083;52.932;6.674;2022-08-04T07:39:05;22.90;99.90
55213;DHT22;41083;52.932;6.674;2022-08-04T07:41:31;22.90;99.90
55213;DHT22;41083;52.932;6.674;2022-08-04T07:43:57;22.90;99.90
55213;DHT22;41083;52.932;6.674;2022-08-04T07:46:24;23.00;99.90
55213;DHT22;41083;52.932;6.674;2022-08-04T07:48:50;23.00;99.90
55213;DHT22;41083;52.932;6.674;2022-08-04T07:51:16;23.00;99.90
55213;DHT22;41083;52.932;6.674;2022-08-04T07:53:43;23.10;99.90
55213;DHT22;41083;52.932;6.674;2022-08-04T07:56:10;23.10;99.90
55213;DHT22;41083;52.932;6.674;2022-08-04T07:58:38;23.20;99.90
55213;DHT22;41083;52.932;6.674;2022-08-04T08:01:03;23.20;99.90
55213;DHT22;41083;52.932;6.674;2022-08-04T08:03:29;23.30;99.90
55213;DHT22;41083;52.932;6.674;2022-08-04T08:05:55;23.40;99.90
55213;DHT22;41083;52.932;6.674;2022-08-04T08:08:21;23.50;99.90
55213;DHT22;41083;52.932;6.674;2022-08-04T08:10:47;23.50;99.90
55213;DHT22;41083;52.932;6.674;2022-08-04T08:13:14;23.50;99.90
55213;DHT22;41083;52.932;6.674;2022-08-04T08:15:42;23.70;99.90
55213;DHT22;41083;52.932;6.674;2022-08-04T08:18:08;23.80;99.90
55213;DHT22;41083;52.932;6.674;2022-08-04T08:20:34;23.80;99.90
55213;DHT22;41083;52.932;6.674;2022-08-04T08:23:01;23.80;99.90
55213;DHT22;41083;52.932;6.674;2022-08-04T08:25:29;23.90;99.90
55213;DHT22;41083;52.932;6.674;2022-08-04T08:27:56;24.10;99.90
55213;DHT22;41083;52.932;6.674;2022-08-04T08:30:22;24.20;99.90
55213;DHT22;41083;52.932;6.674;2022-08-04T08:32:48;24.20;99.90
55213;DHT22;41083;52.932;6.674;2022-08-04T08:35:14;24.30;99.90
55213;DHT22;41083;52.932;6.674;2022-08-04T08:37:53;24.40;99.90
55213;DHT22;41083;52.932;6.674;2022-08-04T08:40:34;24.40;99.90
55213;DHT22;41083;52.932;6.674;2022-08-04T08:43:29;24.50;99.90
55213;DHT22;41083;52.932;6.674;2022-08-04T08:46:24;24.60;99.90
55213;DHT22;41083;52.932;6.674;2022-08-04T08:48:57;24.60;99.90
55213;DHT22;41083;52.932;6.674;2022-08-04T08:51:41;24.60;99.90
55213;DHT22;41083;52.932;6.674;2022-08-04T09:00:06;24.80;99.90
55213;DHT22;41083;52.932;6.674;2022-08-04T09:03:04;24.80;99.90
55213;DHT22;41083;52.932;6.674;2022-08-04T09:10:51;25.00;99.90
55213;DHT22;41083;52.932;6.674;2022-08-04T09:13:31;25.10;99.90
55213;DHT22;41083;52.932;6.674;2022-08-04T09:16:36;25.20;99.90
55213;DHT22;41083;52.932;6.674;2022-08-04T09:19:11;25.30;99.90
55213;DHT22;41083;52.932;6.674;2022-08-04T09:22:15;25.30;99.90
55213;DHT22;41083;52.932;6.674;2022-08-04T09:25:01;25.40;98.60
55213;DHT22;41083;52.932;6.674;2022-08-04T09:30:30;25.60;98.50
55213;DHT22;41083;52.932;6.674;2022-08-04T09:33:09;25.70;98.60
55213;DHT22;41083;52.932;6.674;2022-08-04T09:35:47;25.70;98.30
55213;DHT22;41083;52.932;6.674;2022-08-04T09:38:19;25.80;98.80
55213;DHT22;41083;52.932;6.674;2022-08-04T09:40:55;25.90;98.80
55213;DHT22;41083;52.932;6.674;2022-08-04T09:46:25;26.00;94.80
55213;DHT22;41083;52.932;6.674;2022-08-04T09:49:15;26.00;97.30
55213;DHT22;41083;52.932;6.674;2022-08-04T10:02:16;25.90;96.30
55213;DHT22;41083;52.932;6.674;2022-08-04T10:04:43;25.90;97.50
55213;DHT22;41083;52.932;6.674;2022-08-04T10:07:15;25.90;97.90
55213;DHT22;41083;52.932;6.674;2022-08-04T10:10:00;25.90;98.00
55213;DHT22;41083;52.932;6.674;2022-08-04T10:12:40;25.80;97.80
55213;DHT22;41083;52.932;6.674;2022-08-04T10:15:19;25.80;98.10
55213;DHT22;41083;52.932;6.674;2022-08-04T10:23:45;25.70;97.10
55213;DHT22;41083;52.932;6.674;2022-08-04T10:26:38;25.70;98.20
55213;DHT22;41083;52.932;6.674;2022-08-04T10:29:10;25.70;98.40
55213;DHT22;41083;52.932;6.674;2022-08-04T10:32:15;25.90;98.20
55213;DHT22;41083;52.932;6.674;2022-08-04T10:34:47;25.90;96.80
55213;DHT22;41083;52.932;6.674;2022-08-04T10:37:31;25.80;97.60
55213;DHT22;41083;52.932;6.674;2022-08-04T10:40:04;25.80;97.20
55213;DHT22;41083;52.932;6.674;2022-08-04T10:42:58;25.90;97.50
55213;DHT22;41083;52.932;6.674;2022-08-04T10:45:36;25.90;97.80
55213;DHT22;41083;52.932;6.674;2022-08-04T10:48:21;25.90;97.00
55213;DHT22;41083;52.932;6.674;2022-08-04T10:51:18;25.90;97.50
55213;DHT22;41083;52.932;6.674;2022-08-04T10:53:49;26.00;97.00
55213;DHT22;41083;52.932;6.674;2022-08-04T10:56:39;26.00;97.30
55213;DHT22;41083;52.932;6.674;2022-08-04T10:59:34;26.10;95.90
55213;DHT22;41083;52.932;6.674;2022-08-04T11:05:30;26.10;95.10
55213;DHT22;41083;52.932;6.674;2022-08-04T11:08:05;26.10;94.10
55213;DHT22;41083;52.932;6.674;2022-08-04T11:10:45;26.10;95.90
55213;DHT22;41083;52.932;6.674;2022-08-04T11:13:15;26.10;96.10
55213;DHT22;41083;52.932;6.674;2022-08-04T11:15:51;26.20;95.60
55213;DHT22;41083;52.932;6.674;2022-08-04T11:18:40;26.20;94.20
55213;DHT22;41083;52.932;6.674;2022-08-04T11:21:14;26.10;93.60
55213;DHT22;41083;52.932;6.674;2022-08-04T11:23:55;26.20;95.00
55213;DHT22;41083;52.932;6.674;2022-08-04T11:29:31;26.10;93.70
55213;DHT22;41083;52.932;6.674;2022-08-04T11:32:02;26.10;91.60
55213;DHT22;41083;52.932;6.674;2022-08-04T11:34:29;26.10;94.10
55213;DHT22;41083;52.932;6.674;2022-08-04T11:37:10;26.10;94.20
55213;DHT22;41083;52.932;6.674;2022-08-04T11:39:49;26.00;93.30
55213;DHT22;41083;52.932;6.674;2022-08-04T11:42:30;26.10;94.20
55213;DHT22;41083;52.932;6.674;2022-08-04T11:45:15;26.10;94.10
55213;DHT22;41083;52.932;6.674;2022-08-04T11:48:02;26.20;94.80
55213;DHT22;41083;52.932;6.674;2022-08-04T11:50:43;26.10;94.70
55213;DHT22;41083;52.932;6.674;2022-08-04T11:53:12;26.20;94.80
55213;DHT22;41083;52.932;6.674;2022-08-04T11:55:42;26.20;95.20
55213;DHT22;41083;52.932;6.674;2022-08-04T11:58:08;26.20;95.40
55213;DHT22;41083;52.932;6.674;2022-08-04T12:00:37;26.10;95.50
55213;DHT22;41083;52.932;6.674;2022-08-04T12:03:17;26.00;95.50
55213;DHT22;41083;52.932;6.674;2022-08-04T12:08:50;25.90;95.00
55213;DHT22;41083;52.932;6.674;2022-08-04T12:11:37;25.90;95.10
55213;DHT22;41083;52.932;6.674;2022-08-04T12:14:20;25.80;94.90
55213;DHT22;41083;52.932;6.674;2022-08-04T12:16:58;25.70;95.40
55213;DHT22;41083;52.932;6.674;2022-08-04T12:19:47;25.70;95.60
55213;DHT22;41083;52.932;6.674;2022-08-04T12:22:18;25.60;94.70
55213;DHT22;41083;52.932;6.674;2022-08-04T12:25:07;25.50;95.70
55213;DHT22;41083;52.932;6.674;2022-08-04T12:30:12;25.40;95.40
55213;DHT22;41083;52.932;6.674;2022-08-04T12:32:50;25.30;95.50
55213;DHT22;41083;52.932;6.674;2022-08-04T12:35:28;25.30;94.90
55213;DHT22;41083;52.932;6.674;2022-08-04T12:38:05;25.20;95.00
55213;DHT22;41083;52.932;6.674;2022-08-04T12:40:54;25.10;94.10
55213;DHT22;41083;52.932;6.674;2022-08-04T12:43:40;25.00;94.00
55213;DHT22;41083;52.932;6.674;2022-08-04T12:46:08;24.90;94.00
55213;DHT22;41083;52.932;6.674;2022-08-04T12:48:36;24.80;95.20
55213;DHT22;41083;52.932;6.674;2022-08-04T12:51:03;24.70;95.40
55213;DHT22;41083;52.932;6.674;2022-08-04T12:53:32;24.60;95.60
55213;DHT22;41083;52.932;6.674;2022-08-04T12:55:59;24.70;95.70
55213;DHT22;41083;52.932;6.674;2022-08-04T12:58:28;24.60;95.80
55213;DHT22;41083;52.932;6.674;2022-08-04T13:01:01;24.60;95.80
55213;DHT22;41083;52.932;6.674;2022-08-04T13:03:33;24.60;95.70
55213;DHT22;41083;52.932;6.674;2022-08-04T13:06:00;24.60;95.60
55213;DHT22;41083;52.932;6.674;2022-08-04T13:08:27;24.60;95.60
55213;DHT22;41083;52.932;6.674;2022-08-04T13:10:56;24.70;95.50
55213;DHT22;41083;52.932;6.674;2022-08-04T13:13:26;24.70;95.50
55213;DHT22;41083;52.932;6.674;2022-08-04T13:15:54;24.80;95.40
55213;DHT22;41083;52.932;6.674;2022-08-04T13:18:21;24.90;95.50
55213;DHT22;41083;52.932;6.674;2022-08-04T13:20:47;24.90;95.40
55213;DHT22;41083;52.932;6.674;2022-08-04T13:23:15;25.00;95.40
55213;DHT22;41083;52.932;6.674;2022-08-04T13:25:43;25.10;95.10
55213;DHT22;41083;52.932;6.674;2022-08-04T13:28:18;25.20;94.80
55213;DHT22;41083;52.932;6.674;2022-08-04T13:30:45;25.30;93.80
55213;DHT22;41083;52.932;6.674;2022-08-04T13:33:11;25.40;94.10
55213;DHT22;41083;52.932;6.674;2022-08-04T13:35:43;25.40;94.00
55213;DHT22;41083;52.932;6.674;2022-08-04T13:38:11;25.40;93.20
55213;DHT22;41083;52.932;6.674;2022-08-04T13:40:39;25.40;93.60
55213;DHT22;41083;52.932;6.674;2022-08-04T13:43:06;25.50;93.40
55213;DHT22;41083;52.932;6.674;2022-08-04T13:45:34;25.50;93.10
55213;DHT22;41083;52.932;6.674;2022-08-04T13:48:01;25.50;92.80
55213;DHT22;41083;52.932;6.674;2022-08-04T13:50:28;25.50;92.80
55213;DHT22;41083;52.932;6.674;2022-08-04T13:53:00;25.40;92.50
55213;DHT22;41083;52.932;6.674;2022-08-04T13:55:33;25.40;92.10
55213;DHT22;41083;52.932;6.674;2022-08-04T13:58:08;25.40;92.40
55213;DHT22;41083;52.932;6.674;2022-08-04T14:00:47;25.30;91.20
55213;DHT22;41083;52.932;6.674;2022-08-04T14:03:24;25.30;91.90
55213;DHT22;41083;52.932;6.674;2022-08-04T14:06:13;25.30;91.40
55213;DHT22;41083;52.932;6.674;2022-08-04T14:08:48;25.30;90.90
55213;DHT22;41083;52.932;6.674;2022-08-04T14:11:16;25.40;91.90
55213;DHT22;41083;52.932;6.674;2022-08-04T14:13:42;25.40;91.80
55213;DHT22;41083;52.932;6.674;2022-08-04T14:16:19;25.40;91.80
55213;DHT22;41083;52.932;6.674;2022-08-04T14:18:46;25.40;91.40
55213;DHT22;41083;52.932;6.674;2022-08-04T14:21:16;25.30;91.60
55213;DHT22;41083;52.932;6.674;2022-08-04T14:28:42;25.30;91.30
55213;DHT22;41083;52.932;6.674;2022-08-04T14:31:13;25.30;91.60
55213;DHT22;41083;52.932;6.674;2022-08-04T14:33:40;25.30;91.40
55213;DHT22;41083;52.932;6.674;2022-08-04T14:36:07;25.30;91.20
55213;DHT22;41083;52.932;6.674;2022-08-04T14:41:11;25.30;90.60
55213;DHT22;41083;52.932;6.674;2022-08-04T14:43:44;25.40;91.20
55213;DHT22;41083;52.932;6.674;2022-08-04T14:46:11;25.50;90.90
55213;DHT22;41083;52.932;6.674;2022-08-04T14:48:37;25.50;90.80
55213;DHT22;41083;52.932;6.674;2022-08-04T14:51:04;25.50;90.90
55213;DHT22;41083;52.932;6.674;2022-08-04T14:53:36;25.50;90.90
55213;DHT22;41083;52.932;6.674;2022-08-04T14:56:04;25.50;90.90
55213;DHT22;41083;52.932;6.674;2022-08-04T14:58:32;25.60;90.60
55213;DHT22;41083;52.932;6.674;2022-08-04T15:01:00;25.60;90.60
55213;DHT22;41083;52.932;6.674;2022-08-04T15:03:30;25.60;90.60
55213;DHT22;41083;52.932;6.674;2022-08-04T15:05:58;25.60;90.30
55213;DHT22;41083;52.932;6.674;2022-08-04T15:08:25;25.70;90.50
55213;DHT22;41083;52.932;6.674;2022-08-04T15:10:53;25.80;90.50
55213;DHT22;41083;52.932;6.674;2022-08-04T15:13:23;25.80;90.50
55213;DHT22;41083;52.932;6.674;2022-08-04T15:15:50;25.80;90.00
55213;DHT22;41083;52.932;6.674;2022-08-04T15:18:16;25.80;89.40
55213;DHT22;41083;52.932;6.674;2022-08-04T15:20:42;25.80;89.00
55213;DHT22;41083;52.932;6.674;2022-08-04T15:23:08;25.70;88.80
55213;DHT22;41083;52.932;6.674;2022-08-04T15:25:45;25.80;89.10
55213;DHT22;41083;52.932;6.674;2022-08-04T15:28:15;25.70;86.80
55213;DHT22;41083;52.932;6.674;2022-08-04T15:30:44;25.70;87.10
55213;DHT22;41083;52.932;6.674;2022-08-04T15:33:12;25.70;87.80
55213;DHT22;41083;52.932;6.674;2022-08-04T15:35:41;25.60;87.60
55213;DHT22;41083;52.932;6.674;2022-08-04T15:38:31;25.60;87.70
55213;DHT22;41083;52.932;6.674;2022-08-04T15:41:06;25.60;86.80
55213;DHT22;41083;52.932;6.674;2022-08-04T15:46:03;25.70;88.30
55213;DHT22;41083;52.932;6.674;2022-08-04T15:48:30;25.70;88.00
55213;DHT22;41083;52.932;6.674;2022-08-04T15:53:27;25.70;87.50
55213;DHT22;41083;52.932;6.674;2022-08-04T15:55:53;25.70;86.50
55213;DHT22;41083;52.932;6.674;2022-08-04T15:58:19;25.60;87.40
55213;DHT22;41083;52.932;6.674;2022-08-04T16:03:41;25.50;86.30
55213;DHT22;41083;52.932;6.674;2022-08-04T16:16:47;25.30;85.00
55213;DHT22;41083;52.932;6.674;2022-08-04T16:19:31;25.30;88.00
55213;DHT22;41083;52.932;6.674;2022-08-04T16:22:00;25.20;90.00
55213;DHT22;41083;52.932;6.674;2022-08-04T16:24:39;25.10;90.20
55213;DHT22;41083;52.932;6.674;2022-08-04T16:27:10;25.10;90.80
55213;DHT22;41083;52.932;6.674;2022-08-04T16:29:37;24.90;90.80
55213;DHT22;41083;52.932;6.674;2022-08-04T16:34:41;24.90;91.10
55213;DHT22;41083;52.932;6.674;2022-08-04T16:37:11;24.80;91.40
55213;DHT22;41083;52.932;6.674;2022-08-04T16:39:38;24.70;91.60
55213;DHT22;41083;52.932;6.674;2022-08-04T16:44:59;24.60;91.40
55213;DHT22;41083;52.932;6.674;2022-08-04T16:50:20;24.50;90.20
55213;DHT22;41083;52.932;6.674;2022-08-04T16:52:49;24.50;90.30
55213;DHT22;41083;52.932;6.674;2022-08-04T16:55:17;24.50;90.70
55213;DHT22;41083;52.932;6.674;2022-08-04T16:57:47;24.40;90.60
55213;DHT22;41083;52.932;6.674;2022-08-04T17:00:13;24.40;90.40
55213;DHT22;41083;52.932;6.674;2022-08-04T17:02:39;24.40;90.70
55213;DHT22;41083;52.932;6.674;2022-08-04T17:05:23;24.30;90.60
55213;DHT22;41083;52.932;6.674;2022-08-04T17:07:50;24.30;88.20
55213;DHT22;41083;52.932;6.674;2022-08-04T17:10:16;24.20;90.30
55213;DHT22;41083;52.932;6.674;2022-08-04T17:12:42;24.20;90.40
55213;DHT22;41083;52.932;6.674;2022-08-04T17:15:28;24.10;90.10
55213;DHT22;41083;52.932;6.674;2022-08-04T17:18:17;24.10;86.60
55213;DHT22;41083;52.932;6.674;2022-08-04T17:20:43;24.10;86.50
55213;DHT22;41083;52.932;6.674;2022-08-04T17:23:33;24.10;89.40
55213;DHT22;41083;52.932;6.674;2022-08-04T17:26:02;24.10;85.80
55213;DHT22;41083;52.932;6.674;2022-08-04T17:28:28;24.00;88.00
55213;DHT22;41083;52.932;6.674;2022-08-04T17:30:56;24.00;89.00
55213;DHT22;41083;52.932;6.674;2022-08-04T17:33:23;24.00;89.90
55213;DHT22;41083;52.932;6.674;2022-08-04T17:35:50;24.00;90.10
55213;DHT22;41083;52.932;6.674;2022-08-04T17:38:16;23.90;90.20
55213;DHT22;41083;52.932;6.674;2022-08-04T17:40:57;23.90;90.40
55213;DHT22;41083;52.932;6.674;2022-08-04T17:43:50;23.80;90.30
55213;DHT22;41083;52.932;6.674;2022-08-04T17:46:40;23.70;90.10
55213;DHT22;41083;52.932;6.674;2022-08-04T17:54:08;23.50;90.60
55213;DHT22;41083;52.932;6.674;2022-08-04T17:59:07;23.50;90.70
55213;DHT22;41083;52.932;6.674;2022-08-04T18:01:59;23.50;90.70
55213;DHT22;41083;52.932;6.674;2022-08-04T18:04:26;23.40;90.50
55213;DHT22;41083;52.932;6.674;2022-08-04T18:06:54;23.30;90.80
55213;DHT22;41083;52.932;6.674;2022-08-04T18:09:27;23.30;90.70
55213;DHT22;41083;52.932;6.674;2022-08-04T18:11:58;23.20;90.70
55213;DHT22;41083;52.932;6.674;2022-08-04T18:14:25;23.20;90.70
55213;DHT22;41083;52.932;6.674;2022-08-04T18:16:53;23.10;90.90
55213;DHT22;41083;52.932;6.674;2022-08-04T18:19:19;23.10;90.90
55213;DHT22;41083;52.932;6.674;2022-08-04T18:21:44;23.10;91.00
55213;DHT22;41083;52.932;6.674;2022-08-04T18:24:11;23.00;91.10
55213;DHT22;41083;52.932;6.674;2022-08-04T18:26:38;23.00;91.10
55213;DHT22;41083;52.932;6.674;2022-08-04T18:29:04;22.90;91.10
55213;DHT22;41083;52.932;6.674;2022-08-04T18:31:32;22.80;91.00
55213;DHT22;41083;52.932;6.674;2022-08-04T18:33:58;22.80;91.10
55213;DHT22;41083;52.932;6.674;2022-08-04T18:36:24;22.80;91.10
55213;DHT22;41083;52.932;6.674;2022-08-04T18:38:50;22.70;91.10
55213;DHT22;41083;52.932;6.674;2022-08-04T18:41:15;22.60;91.10
55213;DHT22;41083;52.932;6.674;2022-08-04T18:43:41;22.60;91.10
55213;DHT22;41083;52.932;6.674;2022-08-04T18:46:07;22.50;91.10
55213;DHT22;41083;52.932;6.674;2022-08-04T18:48:32;22.50;91.30
55213;DHT22;41083;52.932;6.674;2022-08-04T18:50:58;22.50;91.50
55213;DHT22;41083;52.932;6.674;2022-08-04T18:53:23;22.40;91.80
55213;DHT22;41083;52.932;6.674;2022-08-04T18:55:49;22.30;92.00
55213;DHT22;41083;52.932;6.674;2022-08-04T18:58:14;22.30;92.20
55213;DHT22;41083;52.932;6.674;2022-08-04T19:00:40;22.20;92.30
55213;DHT22;41083;52.932;6.674;2022-08-04T19:03:05;22.20;92.40
55213;DHT22;41083;52.932;6.674;2022-08-04T19:05:31;22.20;92.60
55213;DHT22;41083;52.932;6.674;2022-08-04T19:07:57;22.10;92.70
55213;DHT22;41083;52.932;6.674;2022-08-04T19:10:23;22.00;92.80
55213;DHT22;41083;52.932;6.674;2022-08-04T19:12:48;22.00;92.90
55213;DHT22;41083;52.932;6.674;2022-08-04T19:15:14;22.00;92.90
55213;DHT22;41083;52.932;6.674;2022-08-04T19:17:40;21.90;93.00
55213;DHT22;41083;52.932;6.674;2022-08-04T19:20:05;21.80;93.00
55213;DHT22;41083;52.932;6.674;2022-08-04T19:22:31;21.80;93.20
55213;DHT22;41083;52.932;6.674;2022-08-04T19:24:57;21.70;93.20
55213;DHT22;41083;52.932;6.674;2022-08-04T19:27:22;21.70;93.30
55213;DHT22;41083;52.932;6.674;2022-08-04T19:29:48;21.70;93.30
55213;DHT22;41083;52.932;6.674;2022-08-04T19:32:14;21.60;93.40